Time;durP1;ratioP1;P1;durP2;ratioP2;P2;SDS_P1;SDS_P2;PMS_P1;PMS_P2;Temp;Humidity;BMP_temperature;BMP_pressure;BME280_temperature;BME280_humidity;BME280_pressure;Samples;Min_cycle;Max_cycle;Signal;HPM_P1;HPM_P2
2021/10/17 00:02:18;;;;;;;36.50;22.60;;;4.70;99.90;;;;;;5012881;28;20184;-73
2021/10/17 00:04:43;;;;;;;42.70;24.30;;;5.00;99.90;;;;;;5045618;28;20264;-72
2021/10/17 00:07:10;;;;;;;32.67;22.70;;;5.00;99.90;;;;;;5028721;28;20681;-72
2021/10/17 00:09:37;;;;;;;33.75;24.00;;;5.00;99.90;;;;;;5031960;28;20190;-73
2021/10/17 00:12:05;;;;;;;33.05;22.40;;;4.90;99.90;;;;;;5032191;28;20179;-71
2021/10/17 00:14:31;;;;;;;31.90;19.65;;;5.10;99.90;;;;;;5040356;28;20680;-72
2021/10/17 00:16:56;;;;;;;29.33;19.23;;;5.20;99.90;;;;;;5032115;28;20195;-72
2021/10/17 00:19:22;;;;;;;28.73;20.80;;;5.10;99.90;;;;;;5032272;28;20187;-73
2021/10/17 00:21:47;;;;;;;29.83;18.97;;;5.30;99.90;;;;;;5031082;28;20182;-72
2021/10/17 00:24:13;;;;;;;25.13;17.90;;;5.30;99.90;;;;;;5049682;28;20209;-73
2021/10/17 00:26:39;;;;;;;27.30;17.97;;;5.30;99.90;;;;;;5045008;28;20544;-71
2021/10/17 00:29:05;;;;;;;23.88;17.30;;;5.40;99.90;;;;;;5012345;28;20196;-72
2021/10/17 00:31:31;;;;;;;27.67;19.75;;;5.60;99.90;;;;;;5027433;28;20191;-73
2021/10/17 00:33:56;;;;;;;33.20;23.20;;;5.80;99.90;;;;;;5038229;28;20535;-72
2021/10/17 00:36:23;;;;;;;32.83;23.17;;;5.50;99.90;;;;;;5011819;28;20227;-71
2021/10/17 00:38:49;;;;;;;31.15;20.48;;;5.70;99.90;;;;;;5011756;28;20250;-72
2021/10/17 00:41:16;;;;;;;31.77;20.97;;;5.80;99.90;;;;;;5020135;28;20179;-72
2021/10/17 00:43:42;;;;;;;26.33;19.75;;;5.90;99.90;;;;;;5039331;28;20186;-72
2021/10/17 00:46:34;;;;;;;29.20;21.07;;;6.20;99.90;;;;;;5051256;28;20194;-72
2021/10/17 00:48:59;;;;;;;26.75;19.58;;;6.20;99.90;;;;;;5049438;28;20206;-72
2021/10/17 00:51:25;;;;;;;24.40;17.00;;;6.10;99.90;;;;;;5041731;28;20191;-73
2021/10/17 00:53:53;;;;;;;24.70;18.20;;;6.40;99.90;;;;;;5040280;28;20186;-74
2021/10/17 00:56:20;;;;;;;22.17;16.42;;;6.30;99.90;;;;;;5051055;28;20875;-72
2021/10/17 00:58:45;;;;;;;20.13;15.93;;;6.20;99.90;;;;;;5036796;28;20742;-72
2021/10/17 01:01:11;;;;;;;24.10;17.80;;;6.20;99.90;;;;;;5021064;28;20180;-72
2021/10/17 01:03:36;;;;;;;22.23;15.90;;;6.20;99.90;;;;;;5025886;28;20594;-74
2021/10/17 01:06:04;;;;;;;21.53;14.90;;;6.40;99.90;;;;;;5024769;28;20238;-71
2021/10/17 01:08:30;;;;;;;20.05;15.82;;;6.40;99.90;;;;;;5012141;28;20234;-71
2021/10/17 01:10:56;;;;;;;22.00;15.60;;;6.50;99.90;;;;;;5011001;28;20191;-71
2021/10/17 01:13:23;;;;;;;18.00;13.55;;;6.30;99.90;;;;;;5021007;28;20179;-71
2021/10/17 01:15:54;;;;;;;17.73;14.60;;;6.20;99.90;;;;;;5046451;28;20637;-72
2021/10/17 01:18:21;;;;;;;17.33;13.30;;;6.20;99.90;;;;;;5033381;28;20218;-72
2021/10/17 01:20:47;;;;;;;17.88;12.48;;;6.40;99.90;;;;;;5030526;28;20270;-72
2021/10/17 01:23:12;;;;;;;17.90;12.10;;;6.40;99.90;;;;;;5025190;28;20272;-71
2021/10/17 01:25:38;;;;;;;15.33;13.00;;;6.10;99.90;;;;;;5043017;28;20849;-72
2021/10/17 01:28:04;;;;;;;19.70;13.60;;;6.10;99.90;;;;;;5050575;28;20252;-72
2021/10/17 01:30:33;;;;;;;20.53;13.70;;;6.50;99.90;;;;;;5037414;28;20202;-72
2021/10/17 01:32:58;;;;;;;21.05;14.85;;;6.10;99.90;;;;;;5030488;28;20194;-72
2021/10/17 01:35:24;;;;;;;19.77;14.30;;;6.20;99.90;;;;;;5030262;28;20214;-71
2021/10/17 01:37:50;;;;;;;19.00;13.93;;;6.30;99.90;;;;;;5050121;28;20617;-72
2021/10/17 01:40:16;;;;;;;18.90;13.63;;;6.20;99.90;;;;;;5016141;28;20203;-72
2021/10/17 01:42:42;;;;;;;19.67;13.40;;;5.90;99.90;;;;;;5010740;28;20282;-73
2021/10/17 01:45:08;;;;;;;16.70;13.50;;;6.00;99.90;;;;;;5017468;28;20607;-72
2021/10/17 01:47:34;;;;;;;17.67;12.40;;;6.00;99.90;;;;;;5050358;28;20543;-73
2021/10/17 01:49:59;;;;;;;15.00;11.00;;;6.30;99.90;;;;;;5029918;28;20192;-72
2021/10/17 01:52:25;;;;;;;17.07;11.80;;;6.10;99.90;;;;;;5040959;28;20440;-72
2021/10/17 01:54:51;;;;;;;14.20;12.70;;;6.20;99.90;;;;;;5049922;28;20206;-72
2021/10/17 01:57:16;;;;;;;18.23;12.30;;;6.10;99.90;;;;;;5041869;28;20202;-72
2021/10/17 01:59:42;;;;;;;17.07;13.20;;;6.00;99.90;;;;;;5014926;28;20240;-72
2021/10/17 02:02:07;;;;;;;17.27;12.50;;;6.10;99.90;;;;;;5010383;28;20180;-74
2021/10/17 02:04:33;;;;;;;14.60;12.00;;;6.60;99.90;;;;;;5010130;28;20187;-75
2021/10/17 02:06:59;;;;;;;15.63;11.95;;;6.40;99.90;;;;;;5018406;28;20245;-73
2021/10/17 02:09:25;;;;;;;16.00;11.83;;;6.40;99.90;;;;;;5050139;28;20186;-74
2021/10/17 02:11:51;;;;;;;14.00;11.27;;;6.50;99.90;;;;;;5038981;28;20671;-73
2021/10/17 02:14:17;;;;;;;15.18;11.18;;;6.70;99.90;;;;;;5034368;28;20571;-74
2021/10/17 02:16:42;;;;;;;15.77;12.07;;;6.50;99.90;;;;;;5010467;28;20295;-70
2021/10/17 02:19:08;;;;;;;13.43;10.43;;;6.70;99.90;;;;;;5019831;28;20426;-71
2021/10/17 02:21:33;;;;;;;13.70;11.20;;;6.80;99.90;;;;;;5033119;28;20196;-72
2021/10/17 02:23:59;;;;;;;15.10;11.17;;;6.70;99.90;;;;;;5010550;28;20278;-74
2021/10/17 02:26:24;;;;;;;11.73;10.30;;;6.60;99.90;;;;;;5010383;28;20191;-73
2021/10/17 02:28:50;;;;;;;13.13;10.50;;;6.70;99.90;;;;;;5012672;28;20559;-72
2021/10/17 02:31:15;;;;;;;14.17;10.13;;;6.70;99.90;;;;;;5022585;28;20195;-72
2021/10/17 02:33:41;;;;;;;14.00;9.37;;;6.70;99.90;;;;;;5029398;28;20526;-73
2021/10/17 02:36:07;;;;;;;13.70;11.70;;;6.70;99.90;;;;;;5029249;28;20207;-73
2021/10/17 02:38:32;;;;;;;12.50;9.77;;;6.80;99.90;;;;;;5028975;28;20442;-73
2021/10/17 02:40:58;;;;;;;14.43;10.77;;;6.60;99.90;;;;;;5028950;28;20702;-71
2021/10/17 02:43:23;;;;;;;12.70;11.17;;;6.70;99.90;;;;;;5028939;28;20736;-73
2021/10/17 02:45:49;;;;;;;10.83;9.63;;;6.60;99.90;;;;;;5028947;28;20210;-73
2021/10/17 02:48:15;;;;;;;12.40;9.90;;;6.90;99.90;;;;;;5029348;28;20702;-73
2021/10/17 02:50:40;;;;;;;13.40;10.80;;;6.70;99.90;;;;;;5030689;28;20437;-72
2021/10/17 02:53:06;;;;;;;13.20;10.73;;;6.90;99.90;;;;;;5028855;28;20646;-73
2021/10/17 02:55:32;;;;;;;14.93;11.57;;;6.80;99.90;;;;;;5029194;28;20230;-73
2021/10/17 02:57:57;;;;;;;15.57;11.27;;;6.90;99.90;;;;;;5028294;28;20202;-73
2021/10/17 03:00:23;;;;;;;16.00;11.83;;;6.90;99.90;;;;;;5029966;28;20191;-72
2021/10/17 03:02:48;;;;;;;14.40;11.30;;;6.90;99.90;;;;;;5028415;28;20191;-73
2021/10/17 03:05:14;;;;;;;15.37;10.77;;;6.70;99.90;;;;;;5028994;28;20246;-72
2021/10/17 03:07:39;;;;;;;15.90;11.00;;;7.10;99.90;;;;;;5028827;28;20191;-73
2021/10/17 03:10:07;;;;;;;14.20;11.60;;;7.20;99.90;;;;;;5030551;28;20290;-73
2021/10/17 03:12:32;;;;;;;14.85;12.50;;;6.90;99.90;;;;;;5030043;28;20297;-72
2021/10/17 03:14:58;;;;;;;16.87;13.80;;;7.10;99.90;;;;;;5033491;28;20675;-71
2021/10/17 03:17:25;;;;;;;16.57;11.83;;;7.10;99.90;;;;;;5032993;28;20288;-71
2021/10/17 03:19:50;;;;;;;12.75;11.10;;;6.90;99.90;;;;;;5030182;28;20183;-72
2021/10/17 03:22:16;;;;;;;13.50;10.67;;;7.10;99.90;;;;;;5014981;28;20535;-73
2021/10/17 03:24:41;;;;;;;14.90;11.90;;;7.30;99.90;;;;;;5032965;28;20215;-73
2021/10/17 03:27:07;;;;;;;13.83;11.50;;;7.10;99.90;;;;;;5032115;28;20479;-74
2021/10/17 03:29:32;;;;;;;11.23;10.07;;;7.20;99.90;;;;;;5031840;28;20192;-72
2021/10/17 03:31:58;;;;;;;15.20;10.73;;;7.20;99.90;;;;;;5031742;28;20194;-72
2021/10/17 03:34:23;;;;;;;13.70;11.30;;;7.40;99.90;;;;;;5031918;28;20552;-72
2021/10/17 03:36:49;;;;;;;13.70;11.50;;;7.30;99.90;;;;;;5032753;28;20221;-73
2021/10/17 03:39:14;;;;;;;12.27;10.40;;;7.30;99.90;;;;;;5032076;28;20257;-72
2021/10/17 03:41:40;;;;;;;13.13;10.73;;;7.20;99.90;;;;;;5032258;28;20187;-72
2021/10/17 03:44:05;;;;;;;14.07;11.20;;;7.10;99.90;;;;;;5031897;28;20618;-73
2021/10/17 03:46:31;;;;;;;13.87;11.57;;;6.90;99.90;;;;;;5031959;28;20222;-72
2021/10/17 03:48:56;;;;;;;15.20;11.20;;;6.80;99.90;;;;;;5031811;28;20541;-74
2021/10/17 03:51:22;;;;;;;14.50;11.27;;;6.80;99.90;;;;;;5031885;28;20195;-73
2021/10/17 03:53:47;;;;;;;17.17;12.10;;;7.00;99.90;;;;;;5036041;28;20191;-73
2021/10/17 03:56:13;;;;;;;14.83;11.10;;;7.00;99.90;;;;;;5031898;28;20219;-71
2021/10/17 03:58:39;;;;;;;15.30;11.50;;;7.00;99.90;;;;;;5030962;28;20199;-71
2021/10/17 04:01:04;;;;;;;16.57;11.40;;;6.70;99.90;;;;;;5031281;28;20187;-72
2021/10/17 04:03:30;;;;;;;14.00;9.47;;;6.80;99.90;;;;;;5032298;28;20187;-72
2021/10/17 04:05:56;;;;;;;14.20;10.87;;;7.00;99.90;;;;;;5031054;28;20231;-75
2021/10/17 04:08:21;;;;;;;12.03;9.90;;;7.00;99.90;;;;;;5031445;28;20191;-70
2021/10/17 04:10:47;;;;;;;12.53;9.80;;;6.90;99.90;;;;;;5031129;28;20183;-71
2021/10/17 04:13:13;;;;;;;12.40;10.67;;;6.90;99.90;;;;;;5030896;28;20195;-71
2021/10/17 04:15:38;;;;;;;13.30;10.67;;;7.00;99.90;;;;;;5032523;28;20219;-72
2021/10/17 04:18:04;;;;;;;13.63;10.93;;;6.60;99.90;;;;;;5031047;28;20187;-72
2021/10/17 04:20:30;;;;;;;13.02;11.00;;;7.10;99.90;;;;;;5031045;28;20187;-72
2021/10/17 04:22:56;;;;;;;14.47;10.87;;;6.60;99.90;;;;;;5033281;28;20217;-76
2021/10/17 04:25:22;;;;;;;12.77;10.70;;;6.70;99.90;;;;;;5031601;28;20649;-72
2021/10/17 04:27:48;;;;;;;13.93;10.90;;;6.70;99.90;;;;;;5030774;28;20527;-73
2021/10/17 04:30:14;;;;;;;13.52;11.77;;;6.40;99.90;;;;;;5032882;28;20192;-72
2021/10/17 04:32:39;;;;;;;14.17;11.37;;;6.60;99.90;;;;;;5030282;28;20282;-73
2021/10/17 04:35:06;;;;;;;13.83;10.57;;;6.70;99.90;;;;;;5030221;28;20474;-73
2021/10/17 04:37:32;;;;;;;13.23;9.60;;;6.70;99.90;;;;;;5030961;28;20249;-72
2021/10/17 04:39:57;;;;;;;13.00;10.50;;;6.50;99.90;;;;;;5031455;28;20594;-72
2021/10/17 04:42:23;;;;;;;13.80;9.70;;;6.50;99.90;;;;;;5031940;28;20835;-72
2021/10/17 04:44:48;;;;;;;14.70;11.20;;;6.60;99.90;;;;;;5030550;28;20190;-72
2021/10/17 04:47:14;;;;;;;11.80;10.57;;;6.20;99.90;;;;;;5030416;28;20194;-72
2021/10/17 04:49:39;;;;;;;13.60;10.40;;;6.40;99.90;;;;;;5030645;28;20198;-73
2021/10/17 04:52:05;;;;;;;13.27;11.03;;;6.50;99.90;;;;;;5031174;28;20671;-72
2021/10/17 04:54:30;;;;;;;12.73;9.77;;;6.10;99.90;;;;;;5031290;28;20184;-72
2021/10/17 04:56:56;;;;;;;12.70;11.00;;;6.10;99.90;;;;;;5029955;28;20257;-73
2021/10/17 04:59:22;;;;;;;13.20;11.10;;;6.10;99.90;;;;;;5030149;28;20195;-72
2021/10/17 05:01:49;;;;;;;15.32;11.25;;;6.10;99.90;;;;;;5030635;28;20317;-72
2021/10/17 05:04:16;;;;;;;15.45;12.70;;;6.00;99.90;;;;;;5037709;28;20195;-72
2021/10/17 05:06:42;;;;;;;14.70;11.60;;;5.90;99.90;;;;;;5030149;28;20283;-72
2021/10/17 05:09:07;;;;;;;12.50;10.60;;;5.90;99.90;;;;;;5030432;28;20698;-72
2021/10/17 05:11:33;;;;;;;13.47;10.73;;;6.10;99.90;;;;;;5030274;28;20260;-72
2021/10/17 05:13:58;;;;;;;13.87;11.60;;;6.00;99.90;;;;;;5030947;28;20195;-73
2021/10/17 05:16:24;;;;;;;13.73;11.30;;;5.80;99.90;;;;;;5031064;28;20313;-72
2021/10/17 05:18:49;;;;;;;14.40;10.57;;;5.80;99.90;;;;;;5030196;28;20190;-72
2021/10/17 05:21:15;;;;;;;10.93;9.77;;;5.80;99.90;;;;;;5029636;28;20195;-72
2021/10/17 05:23:40;;;;;;;13.67;10.87;;;5.70;99.90;;;;;;5030331;28;20179;-72
2021/10/17 05:26:06;;;;;;;14.00;9.70;;;5.70;99.90;;;;;;5029474;28;20187;-73
2021/10/17 05:28:32;;;;;;;13.70;10.23;;;5.70;99.90;;;;;;5029863;28;20227;-72
2021/10/17 05:31:00;;;;;;;14.90;11.80;;;5.70;99.90;;;;;;5029478;28;20191;-72
2021/10/17 05:33:27;;;;;;;15.40;11.25;;;5.60;99.90;;;;;;5029859;28;20895;-73
2021/10/17 05:35:52;;;;;;;13.85;10.20;;;5.60;99.90;;;;;;5031964;28;20289;-73
2021/10/17 05:38:18;;;;;;;14.07;10.67;;;5.60;99.90;;;;;;5029917;28;20602;-73
2021/10/17 05:40:43;;;;;;;15.30;9.70;;;5.40;99.90;;;;;;5026725;28;20234;-73
2021/10/17 05:43:09;;;;;;;16.77;11.40;;;5.30;99.90;;;;;;5026370;28;20573;-73
2021/10/17 05:45:35;;;;;;;15.88;10.68;;;5.30;99.90;;;;;;5029448;28;20195;-72
2021/10/17 05:48:00;;;;;;;13.23;10.87;;;5.30;99.90;;;;;;5029805;28;20214;-73
2021/10/17 05:50:26;;;;;;;15.23;11.07;;;5.10;99.90;;;;;;5029664;28;20191;-74
2021/10/17 05:52:51;;;;;;;14.40;10.93;;;5.20;99.90;;;;;;5031284;28;20225;-72
2021/10/17 05:55:17;;;;;;;14.60;11.20;;;5.30;99.90;;;;;;5029995;28;20628;-73
2021/10/17 05:57:42;;;;;;;14.30;9.80;;;5.30;99.90;;;;;;5029538;28;20559;-75
2021/10/17 06:00:09;;;;;;;12.57;9.70;;;5.20;99.90;;;;;;5029403;28;20190;-73
2021/10/17 06:02:34;;;;;;;14.32;10.82;;;5.20;99.90;;;;;;5031500;28;20186;-73
2021/10/17 06:05:00;;;;;;;13.43;10.20;;;5.30;99.90;;;;;;5030952;28;20753;-73
2021/10/17 06:07:25;;;;;;;13.40;10.10;;;5.30;99.90;;;;;;5028330;28;20180;-72
2021/10/17 06:09:51;;;;;;;15.83;11.70;;;5.20;99.90;;;;;;5028944;28;20186;-73
2021/10/17 06:12:17;;;;;;;17.40;11.02;;;5.50;99.90;;;;;;5029133;28;20206;-73
2021/10/17 06:14:42;;;;;;;12.83;9.67;;;5.40;99.90;;;;;;5029472;28;20175;-73
2021/10/17 06:17:08;;;;;;;12.97;10.30;;;5.50;99.90;;;;;;5029489;28;20269;-72
2021/10/17 06:19:33;;;;;;;14.10;11.07;;;5.30;99.90;;;;;;5035459;28;20661;-75
2021/10/17 06:22:03;;;;;;;19.13;12.13;;;5.60;99.90;;;;;;5030389;28;20201;-74
2021/10/17 06:24:30;;;;;;;16.83;11.70;;;5.30;99.90;;;;;;5029585;28;20199;-74
2021/10/17 06:26:56;;;;;;;16.17;11.13;;;5.50;99.90;;;;;;5028522;28;20294;-77
2021/10/17 06:29:22;;;;;;;15.75;11.40;;;5.60;99.90;;;;;;5033500;28;20186;-74
2021/10/17 06:31:47;;;;;;;14.03;10.67;;;5.70;99.90;;;;;;5029263;28;20221;-75
2021/10/17 06:34:13;;;;;;;9.87;8.90;;;5.50;99.90;;;;;;5029646;28;20211;-76
2021/10/17 06:36:39;;;;;;;13.17;10.03;;;5.60;99.90;;;;;;5027995;28;20330;-76
2021/10/17 06:39:05;;;;;;;15.43;10.17;;;5.90;99.90;;;;;;5030268;28;20277;-79
2021/10/17 06:41:30;;;;;;;14.30;11.17;;;5.70;99.90;;;;;;5029986;28;20184;-75
2021/10/17 06:43:56;;;;;;;14.30;11.20;;;5.90;99.90;;;;;;5030153;28;20785;-78
2021/10/17 06:46:22;;;;;;;14.63;11.10;;;5.80;99.90;;;;;;5030099;28;20218;-73
2021/10/17 06:48:47;;;;;;;16.03;12.30;;;5.70;99.90;;;;;;5036149;28;20202;-74
2021/10/17 06:51:13;;;;;;;14.60;11.57;;;5.80;99.90;;;;;;5040584;28;20532;-76
2021/10/17 06:53:38;;;;;;;15.80;11.23;;;6.00;99.90;;;;;;5033873;28;20191;-73
2021/10/17 06:56:06;;;;;;;13.23;11.80;;;6.00;99.90;;;;;;5033427;28;20214;-72
2021/10/17 06:58:32;;;;;;;12.90;10.80;;;6.20;99.90;;;;;;5033732;28;20183;-75
2021/10/17 07:00:57;;;;;;;15.00;12.10;;;6.40;99.90;;;;;;5033607;28;20182;-75
2021/10/17 07:03:23;;;;;;;15.27;10.30;;;6.00;99.90;;;;;;5033288;28;20185;-73
2021/10/17 07:05:48;;;;;;;16.70;11.43;;;6.50;99.90;;;;;;5032719;28;20744;-75
2021/10/17 07:08:14;;;;;;;15.90;12.40;;;6.60;99.90;;;;;;5032854;28;20184;-75
2021/10/17 07:10:39;;;;;;;19.77;12.87;;;6.40;99.90;;;;;;5034785;28;20643;-77
2021/10/17 07:13:05;;;;;;;18.43;12.80;;;6.80;99.90;;;;;;5035459;28;20269;-74
2021/10/17 07:15:30;;;;;;;16.20;12.77;;;6.90;99.90;;;;;;5036279;28;20265;-76
2021/10/17 07:17:56;;;;;;;16.83;13.80;;;7.00;99.90;;;;;;5034400;28;20634;-74
2021/10/17 07:20:21;;;;;;;14.63;12.80;;;7.10;99.90;;;;;;5033156;28;20198;-72
2021/10/17 07:22:47;;;;;;;18.57;14.10;;;7.20;99.90;;;;;;5033126;28;20191;-74
2021/10/17 07:25:12;;;;;;;16.00;13.63;;;7.50;99.90;;;;;;5032146;28;20190;-74
2021/10/17 07:27:38;;;;;;;17.17;13.77;;;7.60;99.90;;;;;;5036131;28;20209;-72
2021/10/17 07:30:05;;;;;;;21.50;14.80;;;7.50;99.90;;;;;;5033072;28;20175;-75
2021/10/17 07:32:31;;;;;;;24.42;18.05;;;7.70;99.90;;;;;;5032217;28;20199;-75
2021/10/17 07:34:56;;;;;;;20.60;17.00;;;7.90;99.90;;;;;;5033309;28;20197;-74
2021/10/17 07:37:22;;;;;;;20.97;16.43;;;7.90;99.90;;;;;;5032843;28;20553;-72
2021/10/17 07:40:34;;;;;;;21.87;16.90;;;7.90;99.90;;;;;;5032634;28;20214;-72
2021/10/17 07:42:59;;;;;;;20.15;15.15;;;8.40;99.90;;;;;;5030241;28;20206;-73
2021/10/17 07:45:25;;;;;;;18.50;14.93;;;8.40;99.90;;;;;;5032550;28;20192;-74
2021/10/17 07:47:51;;;;;;;23.83;16.13;;;8.70;99.90;;;;;;5031096;28;20175;-73
2021/10/17 07:50:16;;;;;;;18.97;15.57;;;8.80;99.90;;;;;;5029976;28;20194;-73
2021/10/17 07:52:42;;;;;;;18.73;14.50;;;8.80;99.90;;;;;;5027761;28;20535;-73
2021/10/17 07:55:08;;;;;;;18.83;14.50;;;8.90;99.90;;;;;;5030923;28;20211;-74
2021/10/17 07:57:51;;;;;;;17.83;14.63;;;9.00;99.90;;;;;;5041563;28;20190;-73
2021/10/17 08:00:19;;;;;;;19.48;15.77;;;9.30;99.90;;;;;;5032856;28;20504;-73
2021/10/17 08:02:45;;;;;;;21.83;16.52;;;9.60;99.90;;;;;;5030310;28;20196;-73
2021/10/17 08:05:10;;;;;;;20.25;15.70;;;9.50;99.90;;;;;;5031746;28;20234;-72
2021/10/17 08:07:36;;;;;;;21.93;16.30;;;9.80;99.90;;;;;;5031298;28;20569;-74
2021/10/17 08:10:05;;;;;;;29.73;19.23;;;10.10;99.90;;;;;;5031834;28;20187;-73
2021/10/17 08:12:30;;;;;;;23.17;18.85;;;10.30;99.90;;;;;;5031545;28;20974;-72
2021/10/17 08:14:56;;;;;;;23.90;19.17;;;10.50;99.90;;;;;;5030621;28;20229;-74
2021/10/17 08:17:21;;;;;;;25.40;19.67;;;10.50;99.90;;;;;;5031903;28;20216;-74
2021/10/17 08:19:47;;;;;;;30.07;20.73;;;10.80;99.90;;;;;;5031212;28;20222;-72
2021/10/17 08:22:12;;;;;;;27.90;20.47;;;10.90;99.90;;;;;;5031644;28;20179;-72
2021/10/17 08:24:38;;;;;;;22.33;18.50;;;11.10;99.90;;;;;;5031193;28;20500;-73
2021/10/17 08:27:04;;;;;;;22.60;20.13;;;11.50;99.90;;;;;;5031187;28;20188;-74
2021/10/17 08:29:29;;;;;;;25.73;19.50;;;11.90;99.90;;;;;;5031308;28;20202;-72
2021/10/17 08:31:55;;;;;;;26.23;19.57;;;12.10;99.90;;;;;;5030523;28;20329;-71
2021/10/17 08:34:20;;;;;;;23.60;19.87;;;12.40;99.90;;;;;;5030667;28;20180;-72
2021/10/17 08:36:46;;;;;;;21.83;18.17;;;13.60;99.90;;;;;;5030587;28;20265;-75
2021/10/17 08:39:11;;;;;;;20.73;16.63;;;15.20;99.90;;;;;;5030960;28;20257;-72
2021/10/17 08:41:38;;;;;;;19.40;16.43;;;17.10;99.90;;;;;;5030887;28;20195;-72
2021/10/17 08:44:04;;;;;;;16.93;15.20;;;18.60;99.90;;;;;;5030370;28;20185;-75
2021/10/17 08:46:33;;;;;;;17.27;15.50;;;20.40;99.90;;;;;;5030587;28;20507;-74
2021/10/17 08:48:59;;;;;;;15.20;13.43;;;21.70;96.30;;;;;;5030599;28;20580;-73
2021/10/17 08:51:26;;;;;;;16.40;14.70;;;23.30;90.20;;;;;;5031205;28;20441;-75
2021/10/17 08:53:52;;;;;;;13.70;12.30;;;24.30;76.50;;;;;;5030769;28;20852;-73
2021/10/17 08:56:19;;;;;;;13.67;12.47;;;25.20;63.90;;;;;;5030514;28;20481;-73
2021/10/17 08:58:44;;;;;;;13.97;12.77;;;26.50;56.00;;;;;;5030827;28;20972;-74
2021/10/17 09:01:18;;;;;;;14.10;12.90;;;27.30;49.80;;;;;;5030755;28;20474;-73
2021/10/17 09:03:54;;;;;;;14.00;12.80;;;28.00;47.40;;;;;;5030357;28;20191;-73
2021/10/17 09:06:22;;;;;;;11.80;10.80;;;28.70;40.50;;;;;;5029681;28;20546;-74
2021/10/17 09:09:16;;;;;;;13.70;12.57;;;29.10;39.50;;;;;;5030784;28;20435;-73
2021/10/17 09:11:47;;;;;;;11.70;10.60;;;29.50;37.90;;;;;;5018571;28;20449;-73
2021/10/17 09:14:18;;;;;;;11.17;10.27;;;30.10;36.70;;;;;;5030432;28;20438;-73
2021/10/17 09:16:47;;;;;;;11.47;10.40;;;30.60;35.60;;;;;;5030041;28;20472;-73
2021/10/17 09:19:23;;;;;;;13.57;12.37;;;30.90;33.90;;;;;;5030413;28;20438;-74
2021/10/17 09:22:05;;;;;;;12.80;11.70;;;31.20;33.20;;;;;;5030316;28;20450;-74
2021/10/17 09:24:34;;;;;;;13.67;12.37;;;31.70;32.50;;;;;;5022982;28;21005;-74
2021/10/17 09:27:19;;;;;;;11.00;10.10;;;32.30;30.50;;;;;;5029560;28;20453;-72
2021/10/17 09:29:54;;;;;;;12.97;11.87;;;32.80;29.80;;;;;;5024203;28;20446;-73
2021/10/17 09:32:23;;;;;;;12.60;11.60;;;32.80;28.80;;;;;;5029731;28;20433;-74
2021/10/17 09:35:06;;;;;;;12.80;11.80;;;33.10;29.00;;;;;;5029806;28;20454;-73
2021/10/17 09:37:39;;;;;;;13.33;12.03;;;33.30;27.70;;;;;;5029329;28;20437;-73
2021/10/17 09:40:17;;;;;;;13.03;11.83;;;33.30;28.10;;;;;;5030407;28;20864;-74
2021/10/17 09:43:05;;;;;;;11.53;10.53;;;33.50;27.60;;;;;;5030432;28;21155;-75
2021/10/17 09:45:31;;;;;;;10.90;9.97;;;33.70;27.00;;;;;;5030218;28;20445;-74
2021/10/17 09:47:57;;;;;;;9.50;8.70;;;33.90;27.40;;;;;;5030589;28;20511;-76
2021/10/17 09:50:24;;;;;;;12.30;11.30;;;34.20;26.80;;;;;;5031764;28;20453;-74
2021/10/17 09:53:03;;;;;;;13.27;12.17;;;34.30;26.20;;;;;;5030284;28;20618;-74
2021/10/17 09:55:30;;;;;;;12.83;11.83;;;34.30;25.70;;;;;;5040854;28;20955;-73
2021/10/17 09:57:56;;;;;;;12.67;11.60;;;34.20;26.30;;;;;;5030068;28;20457;-77
2021/10/17 10:00:22;;;;;;;11.13;10.23;;;34.40;26.20;;;;;;5029335;28;20450;-74
2021/10/17 10:02:49;;;;;;;13.40;12.30;;;34.30;25.80;;;;;;5030138;28;20192;-73
2021/10/17 10:05:29;;;;;;;13.50;12.40;;;34.00;25.80;;;;;;5033355;28;20254;-75
2021/10/17 10:08:03;;;;;;;14.83;13.33;;;33.60;26.10;;;;;;5023711;28;20446;-74
2021/10/17 10:10:31;;;;;;;10.00;9.20;;;33.50;25.90;;;;;;5029704;28;20532;-73
2021/10/17 10:12:58;;;;;;;11.03;10.27;;;33.60;27.10;;;;;;5030028;28;20465;-73
2021/10/17 10:15:25;;;;;;;15.97;14.73;;;34.00;26.80;;;;;;5029939;28;20516;-74
2021/10/17 10:17:52;;;;;;;15.43;14.23;;;34.00;25.80;;;;;;5030501;28;20969;-74
2021/10/17 10:20:21;;;;;;;16.63;15.33;;;33.60;26.70;;;;;;5030430;28;20811;-74
2021/10/17 10:22:47;;;;;;;16.10;14.77;;;33.60;26.50;;;;;;5033659;28;20465;-74
2021/10/17 10:25:15;;;;;;;15.80;14.60;;;33.80;26.40;;;;;;5034693;28;20746;-75
2021/10/17 10:27:42;;;;;;;17.60;16.20;;;33.70;26.20;;;;;;5036177;28;20866;-76
2021/10/17 10:30:32;;;;;;;17.80;16.30;;;33.90;26.60;;;;;;5034658;28;20446;-72
2021/10/17 10:33:06;;;;;;;15.63;14.40;;;33.60;26.60;;;;;;5036345;28;20472;-75
2021/10/17 10:35:33;;;;;;;16.33;15.00;;;33.90;26.90;;;;;;5033864;28;20832;-73
2021/10/17 10:37:59;;;;;;;14.90;13.80;;;34.10;27.00;;;;;;5034078;28;20466;-73
2021/10/17 10:40:25;;;;;;;17.47;16.07;;;33.80;26.20;;;;;;5034502;28;20503;-71
2021/10/17 10:42:52;;;;;;;16.30;15.00;;;33.50;26.90;;;;;;5033517;28;20437;-72
2021/10/17 10:45:35;;;;;;;15.17;13.97;;;33.60;27.20;;;;;;5035016;28;20203;-72
2021/10/17 10:48:12;;;;;;;18.57;16.87;;;33.90;26.90;;;;;;5032873;28;20476;-72
2021/10/17 10:50:40;;;;;;;18.03;16.63;;;34.00;26.40;;;;;;5033188;28;20472;-73
2021/10/17 10:53:06;;;;;;;19.03;17.50;;;33.60;26.00;;;;;;5032207;28;20862;-74
2021/10/17 10:55:50;;;;;;;16.50;15.10;;;33.70;26.60;;;;;;5038131;28;20477;-73
2021/10/17 10:58:53;;;;;;;16.63;15.23;;;33.80;26.40;;;;;;5026750;28;20468;-72
2021/10/17 11:01:55;;;;;;;17.00;15.70;;;33.80;27.40;;;;;;5026955;28;21001;-73
2021/10/17 11:04:42;;;;;;;18.07;16.67;;;34.00;25.70;;;;;;5032660;28;20478;-73
2021/10/17 11:07:27;;;;;;;16.63;15.23;;;33.50;26.00;;;;;;5032321;28;20907;-74
2021/10/17 11:09:54;;;;;;;17.00;15.63;;;33.10;27.50;;;;;;5032593;28;20441;-72
2021/10/17 11:12:38;;;;;;;17.27;15.77;;;33.20;27.20;;;;;;5033829;28;20433;-77
2021/10/17 11:15:09;;;;;;;17.77;15.83;;;32.90;27.20;;;;;;5037805;28;20939;-78
2021/10/17 11:17:35;;;;;;;16.10;14.83;;;33.70;27.70;;;;;;5034864;28;20445;-77
2021/10/17 11:20:01;;;;;;;15.83;14.53;;;34.50;26.30;;;;;;5033316;28;20850;-76
2021/10/17 11:22:27;;;;;;;13.17;12.07;;;34.70;25.70;;;;;;5032232;28;20453;-72
2021/10/17 11:24:54;;;;;;;15.70;14.37;;;34.70;25.60;;;;;;5031609;28;20945;-72
2021/10/17 11:27:20;;;;;;;17.27;15.77;;;33.00;25.80;;;;;;5032365;28;20198;-73
2021/10/17 11:29:47;;;;;;;18.37;16.67;;;31.50;27.30;;;;;;5034157;28;20441;-73
2021/10/17 11:32:19;;;;;;;16.53;15.17;;;29.50;29.50;;;;;;5032013;28;20430;-73
2021/10/17 11:34:56;;;;;;;16.80;15.40;;;28.00;32.00;;;;;;5031291;28;20449;-72
2021/10/17 11:37:25;;;;;;;15.87;14.47;;;27.20;34.60;;;;;;5026559;28;20467;-74
2021/10/17 11:39:56;;;;;;;17.03;15.60;;;26.60;35.70;;;;;;5032298;28;20525;-71
2021/10/17 11:42:28;;;;;;;17.13;15.33;;;25.40;37.10;;;;;;5025535;28;20575;-72
2021/10/17 11:44:55;;;;;;;16.23;14.83;;;25.10;41.00;;;;;;5032075;28;20464;-72
2021/10/17 11:47:21;;;;;;;16.43;14.93;;;25.10;40.30;;;;;;5030504;28;20451;-72
2021/10/17 11:49:50;;;;;;;15.63;14.13;;;25.20;40.70;;;;;;5031284;28;20793;-70
2021/10/17 11:52:17;;;;;;;15.53;14.23;;;24.30;39.80;;;;;;5032887;28;20456;-70
2021/10/17 11:54:48;;;;;;;16.10;14.70;;;23.40;41.60;;;;;;5032602;28;20449;-73
2021/10/17 11:57:30;;;;;;;16.43;15.03;;;23.60;44.20;;;;;;5032886;28;20458;-72
2021/10/17 12:00:00;;;;;;;18.13;16.20;;;23.70;42.70;;;;;;5032025;28;20451;-69
2021/10/17 12:02:45;;;;;;;16.00;14.43;;;22.60;43.10;;;;;;5031911;28;20936;-68
2021/10/17 12:05:19;;;;;;;15.30;13.80;;;22.00;44.40;;;;;;5031698;28;20615;-70
2021/10/17 12:07:44;;;;;;;14.23;12.93;;;21.70;45.90;;;;;;5025967;28;21300;-70
2021/10/17 12:10:11;;;;;;;16.90;15.30;;;22.00;48.80;;;;;;5031663;28;20433;-70
2021/10/17 12:12:40;;;;;;;15.93;14.30;;;22.30;46.60;;;;;;5032240;28;20183;-70
2021/10/17 12:15:15;;;;;;;15.50;13.90;;;21.70;45.80;;;;;;5032397;28;20492;-69
2021/10/17 12:17:41;;;;;;;16.67;14.37;;;22.30;48.10;;;;;;5025112;28;20807;-71
2021/10/17 12:20:14;;;;;;;15.03;13.53;;;22.90;46.10;;;;;;5032571;28;20465;-71
2021/10/17 12:22:47;;;;;;;16.47;13.23;;;22.50;45.00;;;;;;5023813;28;20446;-70
2021/10/17 12:25:15;;;;;;;17.97;16.30;;;22.00;46.00;;;;;;5032247;28;20500;-71
2021/10/17 12:27:49;;;;;;;14.93;13.63;;;22.30;46.90;;;;;;5035231;28;20434;-70
2021/10/17 12:30:34;;;;;;;14.03;12.73;;;22.70;45.50;;;;;;5032792;28;20477;-69
2021/10/17 12:33:02;;;;;;;14.40;13.20;;;23.40;45.50;;;;;;5030435;28;20446;-71
2021/10/17 12:35:34;;;;;;;14.70;13.40;;;24.10;44.40;;;;;;5032750;28;20462;-71
2021/10/17 12:38:09;;;;;;;14.97;13.57;;;25.90;41.50;;;;;;5024590;28;20541;-70